sensor_id;sensor_type;location;lat;lon;timestamp;pressure;altitude;pressure_sealevel;temperature;humidity
59073;BME280;44859;51.934;15.554;2024-01-06T00:06:41;98783.44;;;-1.87;100.00
59073;BME280;44859;51.934;15.554;2024-01-06T00:13:31;98784.55;;;-1.79;100.00
59073;BME280;44859;51.934;15.554;2024-01-06T00:18:55;98781.48;;;-1.82;100.00
59073;BME280;44859;51.934;15.554;2024-01-06T00:33:26;98789.44;;;-1.85;100.00
59073;BME280;44859;51.934;15.554;2024-01-06T00:53:43;98797.58;;;-1.89;100.00
59073;BME280;44859;51.934;15.554;2024-01-06T01:00:00;98794.05;;;-1.83;100.00
59073;BME280;44859;51.934;15.554;2024-01-06T01:12:08;98804.61;;;-1.86;100.00
59073;BME280;44859;51.934;15.554;2024-01-06T01:31:33;98802.61;;;-1.90;100.00
59073;BME280;44859;51.934;15.554;2024-01-06T01:44:06;98810.02;;;-1.91;100.00
59073;BME280;44859;51.934;15.554;2024-01-06T01:56:25;98809.65;;;-1.90;100.00
59073;BME280;44859;51.934;15.554;2024-01-06T02:09:39;98811.19;;;-1.89;100.00
59073;BME280;44859;51.934;15.554;2024-01-06T02:21:31;98822.23;;;-1.91;100.00
59073;BME280;44859;51.934;15.554;2024-01-06T02:28:09;98821.36;;;-1.90;100.00
59073;BME280;44859;51.934;15.554;2024-01-06T02:34:17;98815.89;;;-1.94;100.00
59073;BME280;44859;51.934;15.554;2024-01-06T02:40:36;98815.39;;;-1.94;100.00
59073;BME280;44859;51.934;15.554;2024-01-06T02:53:55;98830.81;;;-1.89;100.00
59073;BME280;44859;51.934;15.554;2024-01-06T03:13:11;98833.42;;;-1.91;100.00
59073;BME280;44859;51.934;15.554;2024-01-06T03:18:43;98843.70;;;-1.89;100.00
59073;BME280;44859;51.934;15.554;2024-01-06T03:30:15;98844.09;;;-1.91;100.00
59073;BME280;44859;51.934;15.554;2024-01-06T03:35:55;98839.45;;;-1.92;100.00
59073;BME280;44859;51.934;15.554;2024-01-06T03:41:40;98843.11;;;-1.95;100.00
59073;BME280;44859;51.934;15.554;2024-01-06T03:47:13;98845.34;;;-1.95;100.00
59073;BME280;44859;51.934;15.554;2024-01-06T03:52:50;98843.73;;;-1.91;100.00
59073;BME280;44859;51.934;15.554;2024-01-06T03:58:49;98842.02;;;-1.91;100.00
59073;BME280;44859;51.934;15.554;2024-01-06T04:05:09;98841.53;;;-1.93;100.00
59073;BME280;44859;51.934;15.554;2024-01-06T04:10:53;98848.46;;;-1.98;100.00
59073;BME280;44859;51.934;15.554;2024-01-06T04:23:32;98852.45;;;-2.00;100.00
59073;BME280;44859;51.934;15.554;2024-01-06T04:29:08;98852.84;;;-2.04;100.00
59073;BME280;44859;51.934;15.554;2024-01-06T04:34:15;98853.91;;;-2.07;100.00
59073;BME280;44859;51.934;15.554;2024-01-06T04:45:41;98855.18;;;-2.11;100.00
59073;BME280;44859;51.934;15.554;2024-01-06T04:57:08;98868.42;;;-2.11;100.00
59073;BME280;44859;51.934;15.554;2024-01-06T05:03:12;98879.27;;;-2.11;100.00
59073;BME280;44859;51.934;15.554;2024-01-06T05:08:33;98875.63;;;-2.09;100.00
59073;BME280;44859;51.934;15.554;2024-01-06T05:20:24;98892.48;;;-2.10;100.00
59073;BME280;44859;51.934;15.554;2024-01-06T05:40:19;98901.64;;;-2.11;100.00
59073;BME280;44859;51.934;15.554;2024-01-06T05:46:46;98908.55;;;-2.14;100.00
59073;BME280;44859;51.934;15.554;2024-01-06T05:58:15;98932.29;;;-2.14;100.00
59073;BME280;44859;51.934;15.554;2024-01-06T06:06:07;98947.13;;;-2.18;100.00
59073;BME280;44859;51.934;15.554;2024-01-06T06:11:14;98959.05;;;-2.23;100.00
59073;BME280;44859;51.934;15.554;2024-01-06T06:17:25;98973.98;;;-2.21;100.00
59073;BME280;44859;51.934;15.554;2024-01-06T06:24:21;98989.95;;;-2.15;100.00
59073;BME280;44859;51.934;15.554;2024-01-06T06:37:16;99011.44;;;-2.15;100.00
59073;BME280;44859;51.934;15.554;2024-01-06T06:48:46;99040.67;;;-2.14;100.00
59073;BME280;44859;51.934;15.554;2024-01-06T07:08:10;99063.51;;;-2.10;100.00
59073;BME280;44859;51.934;15.554;2024-01-06T07:13:22;99069.05;;;-2.13;100.00
59073;BME280;44859;51.934;15.554;2024-01-06T07:19:08;99078.86;;;-2.13;100.00
59073;BME280;44859;51.934;15.554;2024-01-06T07:24:45;99089.20;;;-2.15;100.00
59073;BME280;44859;51.934;15.554;2024-01-06T07:30:12;99094.19;;;-2.15;100.00
59073;BME280;44859;51.934;15.554;2024-01-06T07:35:29;99095.23;;;-2.16;100.00
59073;BME280;44859;51.934;15.554;2024-01-06T07:40:54;99110.84;;;-2.11;100.00
59073;BME280;44859;51.934;15.554;2024-01-06T07:46:27;99123.38;;;-2.09;100.00
59073;BME280;44859;51.934;15.554;2024-01-06T07:51:57;99131.98;;;-2.10;100.00
59073;BME280;44859;51.934;15.554;2024-01-06T07:57:32;99140.07;;;-2.08;100.00
59073;BME280;44859;51.934;15.554;2024-01-06T08:02:40;99147.33;;;-2.12;100.00
59073;BME280;44859;51.934;15.554;2024-01-06T08:07:56;99141.33;;;-2.15;100.00
59073;BME280;44859;51.934;15.554;2024-01-06T08:13:08;99143.91;;;-2.16;100.00
59073;BME280;44859;51.934;15.554;2024-01-06T08:18:25;99148.52;;;-2.11;100.00
59073;BME280;44859;51.934;15.554;2024-01-06T08:23:46;99164.69;;;-2.10;100.00
59073;BME280;44859;51.934;15.554;2024-01-06T08:29:03;99160.02;;;-2.08;100.00
59073;BME280;44859;51.934;15.554;2024-01-06T08:34:53;99156.55;;;-2.04;100.00
59073;BME280;44859;51.934;15.554;2024-01-06T08:40:12;99163.62;;;-2.06;100.00
59073;BME280;44859;51.934;15.554;2024-01-06T08:45:27;99167.23;;;-2.05;100.00
59073;BME280;44859;51.934;15.554;2024-01-06T08:50:51;99175.64;;;-2.03;100.00
59073;BME280;44859;51.934;15.554;2024-01-06T08:56:47;99180.64;;;-2.05;100.00
59073;BME280;44859;51.934;15.554;2024-01-06T09:02:29;99184.41;;;-2.02;100.00
59073;BME280;44859;51.934;15.554;2024-01-06T09:07:45;99193.36;;;-2.03;100.00
59073;BME280;44859;51.934;15.554;2024-01-06T09:13:13;99199.02;;;-2.00;100.00
59073;BME280;44859;51.934;15.554;2024-01-06T09:19:23;99206.74;;;-1.97;100.00
59073;BME280;44859;51.934;15.554;2024-01-06T09:25:48;99215.52;;;-1.96;100.00
59073;BME280;44859;51.934;15.554;2024-01-06T09:31:40;99218.25;;;-1.95;100.00
59073;BME280;44859;51.934;15.554;2024-01-06T09:37:04;99218.76;;;-1.91;100.00
59073;BME280;44859;51.934;15.554;2024-01-06T09:42:09;99225.33;;;-1.96;100.00
59073;BME280;44859;51.934;15.554;2024-01-06T09:47:24;99225.64;;;-1.93;100.00
59073;BME280;44859;51.934;15.554;2024-01-06T09:59:08;99231.46;;;-1.89;100.00
59073;BME280;44859;51.934;15.554;2024-01-06T10:04:46;99235.81;;;-1.95;100.00
59073;BME280;44859;51.934;15.554;2024-01-06T10:10:14;99233.98;;;-2.03;100.00
59073;BME280;44859;51.934;15.554;2024-01-06T10:16:24;99236.32;;;-1.94;100.00
59073;BME280;44859;51.934;15.554;2024-01-06T10:22:12;99236.46;;;-1.88;100.00
59073;BME280;44859;51.934;15.554;2024-01-06T10:27:42;99238.70;;;-1.89;100.00
59073;BME280;44859;51.934;15.554;2024-01-06T10:33:33;99245.48;;;-1.99;100.00
59073;BME280;44859;51.934;15.554;2024-01-06T10:39:38;99254.11;;;-2.06;100.00
59073;BME280;44859;51.934;15.554;2024-01-06T10:45:43;99256.76;;;-2.13;100.00
59073;BME280;44859;51.934;15.554;2024-01-06T10:50:41;99259.02;;;-2.16;100.00
59073;BME280;44859;51.934;15.554;2024-01-06T10:56:09;99259.34;;;-2.13;100.00
59073;BME280;44859;51.934;15.554;2024-01-06T11:01:44;99248.52;;;-2.17;100.00
59073;BME280;44859;51.934;15.554;2024-01-06T11:07:35;99251.48;;;-2.25;100.00
59073;BME280;44859;51.934;15.554;2024-01-06T11:18:40;99245.64;;;-2.25;100.00
59073;BME280;44859;51.934;15.554;2024-01-06T11:30:48;99254.27;;;-2.28;100.00
59073;BME280;44859;51.934;15.554;2024-01-06T11:37:00;99248.23;;;-2.26;100.00
59073;BME280;44859;51.934;15.554;2024-01-06T11:49:15;99257.85;;;-2.25;100.00
59073;BME280;44859;51.934;15.554;2024-01-06T11:55:00;99263.02;;;-2.28;100.00
59073;BME280;44859;51.934;15.554;2024-01-06T12:01:20;99264.23;;;-2.26;100.00
59073;BME280;44859;51.934;15.554;2024-01-06T12:07:15;99268.84;;;-2.21;100.00
59073;BME280;44859;51.934;15.554;2024-01-06T12:27:19;99292.63;;;-2.32;100.00
59073;BME280;44859;51.934;15.554;2024-01-06T12:41:20;99298.33;;;-2.38;100.00
59073;BME280;44859;51.934;15.554;2024-01-06T13:01:50;99321.23;;;-2.45;100.00
59073;BME280;44859;51.934;15.554;2024-01-06T13:15:17;99327.23;;;-2.44;100.00
59073;BME280;44859;51.934;15.554;2024-01-06T13:21:20;99338.09;;;-2.47;100.00
59073;BME280;44859;51.934;15.554;2024-01-06T13:27:31;99345.31;;;-2.47;100.00
59073;BME280;44859;51.934;15.554;2024-01-06T13:34:11;99355.13;;;-2.52;100.00
59073;BME280;44859;51.934;15.554;2024-01-06T13:40:11;99358.91;;;-2.54;100.00
59073;BME280;44859;51.934;15.554;2024-01-06T13:47:07;99359.44;;;-2.60;100.00
59073;BME280;44859;51.934;15.554;2024-01-06T13:53:26;99375.61;;;-2.60;100.00
59073;BME280;44859;51.934;15.554;2024-01-06T13:59:37;99379.41;;;-2.67;100.00
59073;BME280;44859;51.934;15.554;2024-01-06T14:12:18;99387.14;;;-2.68;100.00
59073;BME280;44859;51.934;15.554;2024-01-06T14:31:47;99424.96;;;-2.75;100.00
59073;BME280;44859;51.934;15.554;2024-01-06T14:44:04;99423.09;;;-2.77;100.00
59073;BME280;44859;51.934;15.554;2024-01-06T14:49:10;99427.21;;;-2.77;100.00
59073;BME280;44859;51.934;15.554;2024-01-06T14:54:32;99430.47;;;-2.81;100.00
59073;BME280;44859;51.934;15.554;2024-01-06T15:00:21;99438.73;;;-2.89;100.00
59073;BME280;44859;51.934;15.554;2024-01-06T15:11:38;99443.88;;;-2.91;100.00
59073;BME280;44859;51.934;15.554;2024-01-06T15:17:07;99455.91;;;-2.89;100.00
59073;BME280;44859;51.934;15.554;2024-01-06T15:22:33;99461.92;;;-2.91;100.00
59073;BME280;44859;51.934;15.554;2024-01-06T15:28:12;99467.58;;;-2.94;100.00
59073;BME280;44859;51.934;15.554;2024-01-06T15:33:22;99466.04;;;-2.93;100.00
59073;BME280;44859;51.934;15.554;2024-01-06T15:39:26;99479.61;;;-2.94;100.00
59073;BME280;44859;51.934;15.554;2024-01-06T15:44:41;99478.92;;;-2.93;100.00
59073;BME280;44859;51.934;15.554;2024-01-06T15:50:09;99480.13;;;-2.97;100.00
59073;BME280;44859;51.934;15.554;2024-01-06T15:55:49;99483.39;;;-3.01;100.00
59073;BME280;44859;51.934;15.554;2024-01-06T16:01:03;99479.77;;;-3.03;100.00
59073;BME280;44859;51.934;15.554;2024-01-06T16:06:19;99487.84;;;-3.06;100.00
59073;BME280;44859;51.934;15.554;2024-01-06T16:11:31;99498.31;;;-3.08;100.00
59073;BME280;44859;51.934;15.554;2024-01-06T16:16:34;99505.88;;;-3.09;100.00
59073;BME280;44859;51.934;15.554;2024-01-06T16:21:54;99518.25;;;-3.10;100.00
59073;BME280;44859;51.934;15.554;2024-01-06T16:27:21;99525.98;;;-3.11;100.00
59073;BME280;44859;51.934;15.554;2024-01-06T16:32:48;99540.23;;;-3.12;100.00
59073;BME280;44859;51.934;15.554;2024-01-06T16:38:19;99536.45;;;-3.11;100.00
59073;BME280;44859;51.934;15.554;2024-01-06T16:43:41;99545.21;;;-3.12;100.00
59073;BME280;44859;51.934;15.554;2024-01-06T16:49:15;99549.34;;;-3.09;100.00
59073;BME280;44859;51.934;15.554;2024-01-06T16:54:22;99549.86;;;-3.10;100.00
59073;BME280;44859;51.934;15.554;2024-01-06T16:59:33;99542.98;;;-3.11;100.00
59073;BME280;44859;51.934;15.554;2024-01-06T17:04:45;99544.70;;;-3.11;100.00
59073;BME280;44859;51.934;15.554;2024-01-06T17:09:53;99548.14;;;-3.08;100.00
59073;BME280;44859;51.934;15.554;2024-01-06T17:15:36;99549.34;;;-3.09;100.00
59073;BME280;44859;51.934;15.554;2024-01-06T17:20:48;99550.02;;;-3.12;100.00
59073;BME280;44859;51.934;15.554;2024-01-06T17:26:17;99550.54;;;-3.11;100.00
59073;BME280;44859;51.934;15.554;2024-01-06T17:31:49;99557.42;;;-3.09;100.00
59073;BME280;44859;51.934;15.554;2024-01-06T17:37:15;99566.86;;;-3.09;100.00
59073;BME280;44859;51.934;15.554;2024-01-06T17:43:40;99576.82;;;-3.10;100.00
59073;BME280;44859;51.934;15.554;2024-01-06T17:56:20;99584.90;;;-3.11;100.00
59073;BME280;44859;51.934;15.554;2024-01-06T18:01:44;99590.58;;;-3.11;100.00
59073;BME280;44859;51.934;15.554;2024-01-06T18:07:00;99593.48;;;-3.10;100.00
59073;BME280;44859;51.934;15.554;2024-01-06T18:42:12;99622.52;;;-3.08;100.00
59073;BME280;44859;51.934;15.554;2024-01-06T18:48:22;99620.12;;;-3.08;100.00
59073;BME280;44859;51.934;15.554;2024-01-06T18:53:52;99630.27;;;-3.07;100.00
59073;BME280;44859;51.934;15.554;2024-01-06T18:59:07;99632.66;;;-3.09;100.00
59073;BME280;44859;51.934;15.554;2024-01-06T19:04:43;99641.09;;;-3.08;100.00
59073;BME280;44859;51.934;15.554;2024-01-06T19:10:07;99643.32;;;-3.08;100.00
59073;BME280;44859;51.934;15.554;2024-01-06T19:15:27;99648.48;;;-3.08;100.00
59073;BME280;44859;51.934;15.554;2024-01-06T19:20:53;99651.89;;;-3.12;100.00
59073;BME280;44859;51.934;15.554;2024-01-06T19:26:01;99652.90;;;-3.18;100.00
59073;BME280;44859;51.934;15.554;2024-01-06T19:31:05;99654.79;;;-3.19;100.00
59073;BME280;44859;51.934;15.554;2024-01-06T19:36:19;99655.13;;;-3.23;100.00
59073;BME280;44859;51.934;15.554;2024-01-06T19:41:53;99656.64;;;-3.27;100.00
59073;BME280;44859;51.934;15.554;2024-01-06T19:47:13;99655.23;;;-3.30;100.00
59073;BME280;44859;51.934;15.554;2024-01-06T19:53:15;99659.00;;;-3.36;100.00
59073;BME280;44859;51.934;15.554;2024-01-06T19:58:34;99672.38;;;-3.39;100.00
59073;BME280;44859;51.934;15.554;2024-01-06T20:09:23;99685.42;;;-3.38;100.00
59073;BME280;44859;51.934;15.554;2024-01-06T20:15:52;99701.17;;;-3.45;100.00
59073;BME280;44859;51.934;15.554;2024-01-06T20:21:28;99694.14;;;-3.45;100.00
59073;BME280;44859;51.934;15.554;2024-01-06T20:27:23;99697.90;;;-3.47;100.00
59073;BME280;44859;51.934;15.554;2024-01-06T21:08:58;99703.20;;;-3.50;98.65
59073;BME280;44859;51.934;15.554;2024-01-06T21:22:26;99709.05;;;-3.48;97.99
59073;BME280;44859;51.934;15.554;2024-01-06T21:55:52;99734.96;;;-3.50;94.77
59073;BME280;44859;51.934;15.554;2024-01-06T22:02:09;99741.17;;;-3.47;94.78
59073;BME280;44859;51.934;15.554;2024-01-06T22:49:37;99750.90;;;-3.55;93.75
59073;BME280;44859;51.934;15.554;2024-01-06T22:55:13;99752.06;;;-3.59;92.63
59073;BME280;44859;51.934;15.554;2024-01-06T23:00:29;99758.09;;;-3.58;93.29
59073;BME280;44859;51.934;15.554;2024-01-06T23:05:40;99752.23;;;-3.61;93.44
59073;BME280;44859;51.934;15.554;2024-01-06T23:10:43;99760.62;;;-3.63;93.23
59073;BME280;44859;51.934;15.554;2024-01-06T23:15:49;99770.91;;;-3.64;92.91
59073;BME280;44859;51.934;15.554;2024-01-06T23:21:03;99773.98;;;-3.65;92.91
59073;BME280;44859;51.934;15.554;2024-01-06T23:26:09;99776.39;;;-3.66;92.15
59073;BME280;44859;51.934;15.554;2024-01-06T23:31:18;99779.11;;;-3.67;92.33
59073;BME280;44859;51.934;15.554;2024-01-06T23:36:51;99786.49;;;-3.70;91.70
59073;BME280;44859;51.934;15.554;2024-01-06T23:41:59;99782.35;;;-3.72;90.99
59073;BME280;44859;51.934;15.554;2024-01-06T23:47:07;99786.96;;;-3.74;91.12
59073;BME280;44859;51.934;15.554;2024-01-06T23:52:17;99792.45;;;-3.75;91.25
59073;BME280;44859;51.934;15.554;2024-01-06T23:57:19;99794.83;;;-3.76;90.77
